createdAt,value
2018-02-10T00:00:07.737Z,36.25
2018-02-10T00:00:41.421Z,37.05
2018-02-10T00:01:15.102Z,37.03
2018-02-10T00:01:48.785Z,38.33
2018-02-10T00:02:22.463Z,36.28
2018-02-10T00:02:56.910Z,37.90
2018-02-10T00:03:30.594Z,35.63
2018-02-10T00:04:04.281Z,36.00
2018-02-10T00:04:37.983Z,37.75
2018-02-10T00:05:11.662Z,37.15
2018-02-10T00:05:45.342Z,37.38
2018-02-10T00:06:19.005Z,36.63
2018-02-10T00:06:52.680Z,38.30
2018-02-10T00:07:27.138Z,37.40
2018-02-10T00:08:00.831Z,35.35
2018-02-10T00:08:34.509Z,36.38
2018-02-10T00:09:08.193Z,36.67
2018-02-10T00:09:41.894Z,38.65
2018-02-10T00:10:15.554Z,40.70
2018-02-10T00:10:49.995Z,37.22
2018-02-10T00:11:23.711Z,34.63
2018-02-10T00:11:57.402Z,35.95
2018-02-10T00:12:31.111Z,37.45
2018-02-10T00:13:04.782Z,40.08
2018-02-10T00:13:38.461Z,39.03
2018-02-10T00:14:12.515Z,38.63
2018-02-10T00:14:46.976Z,37.50
2018-02-10T00:15:20.663Z,38.17
2018-02-10T00:15:54.330Z,36.90
2018-02-10T00:16:27.998Z,37.90
2018-02-10T00:17:01.685Z,37.28
2018-02-10T00:17:36.121Z,38.95
2018-02-10T00:18:09.793Z,38.03
2018-02-10T00:18:43.462Z,37.53
2018-02-10T00:19:17.915Z,36.83
2018-02-10T00:19:51.627Z,39.10
2018-02-10T00:20:25.348Z,39.60
2018-02-10T00:20:58.998Z,36.83
2018-02-10T00:21:32.665Z,40.67
2018-02-10T00:22:06.471Z,39.40
2018-02-10T00:22:39.798Z,38.85
2018-02-10T00:23:14.237Z,36.95
2018-02-10T00:23:47.914Z,38.63
2018-02-10T00:24:22.360Z,37.97
2018-02-10T00:24:56.054Z,38.60
2018-02-10T00:25:29.720Z,39.25
2018-02-10T00:26:03.398Z,37.83
2018-02-10T00:26:37.074Z,40.80
2018-02-10T00:27:11.523Z,38.63
2018-02-10T00:27:45.186Z,38.40
2018-02-10T00:28:18.876Z,38.03
2018-02-10T00:28:52.550Z,40.08
2018-02-10T00:29:26.329Z,38.53
2018-02-10T00:30:00.801Z,38.92
2018-02-10T00:30:34.531Z,38.80
2018-02-10T00:31:08.351Z,40.53
2018-02-10T00:31:42.043Z,39.83
2018-02-10T00:32:15.726Z,38.72
2018-02-10T00:32:49.407Z,37.83
2018-02-10T00:33:23.851Z,41.63
2018-02-10T00:33:57.513Z,40.35
2018-02-10T00:34:31.212Z,39.00
2018-02-10T00:35:04.902Z,38.70
2018-02-10T00:35:38.596Z,38.22
2018-02-10T00:36:12.282Z,41.67
2018-02-10T00:36:45.784Z,37.88
2018-02-10T00:37:19.461Z,38.88
2018-02-10T00:37:53.131Z,40.90
2018-02-10T00:38:26.814Z,37.30
2018-02-10T00:39:01.258Z,41.03
2018-02-10T00:39:34.936Z,40.03
2018-02-10T00:40:08.625Z,41.47
2018-02-10T00:40:42.124Z,40.67
2018-02-10T00:41:15.833Z,38.65
2018-02-10T00:41:49.501Z,40.83
2018-02-10T00:42:23.176Z,40.00
2018-02-10T00:42:56.875Z,38.50
2018-02-10T00:43:30.551Z,40.55
2018-02-10T00:44:04.228Z,40.40
2018-02-10T00:44:38.666Z,41.25
2018-02-10T00:45:12.366Z,40.20
2018-02-10T00:45:46.051Z,38.78
2018-02-10T00:46:19.723Z,39.05
2018-02-10T00:46:53.412Z,41.90
2018-02-10T00:47:26.893Z,40.97
2018-02-10T00:48:00.576Z,39.78
2018-02-10T00:48:34.262Z,41.92
2018-02-10T00:49:08.712Z,40.30
2018-02-10T00:49:42.400Z,41.22
2018-02-10T00:50:16.089Z,40.83
2018-02-10T00:50:49.771Z,40.45
2018-02-10T00:51:23.445Z,40.05
2018-02-10T00:51:57.114Z,40.25
2018-02-10T00:52:31.580Z,39.25
2018-02-10T00:53:05.256Z,41.72
2018-02-10T00:53:38.951Z,39.72
2018-02-10T00:54:12.629Z,41.25
2018-02-10T00:54:46.315Z,41.53
2018-02-10T00:55:20.947Z,40.00
2018-02-10T00:55:54.618Z,39.90
2018-02-10T00:56:28.290Z,39.45
2018-02-10T00:57:01.973Z,42.00
2018-02-10T00:57:35.646Z,42.97
2018-02-10T00:58:10.086Z,42.83
2018-02-10T00:58:43.754Z,43.03
2018-02-10T00:59:17.446Z,40.83
2018-02-10T00:59:51.153Z,42.72
2018-02-10T01:00:24.850Z,40.67
2018-02-10T01:00:58.521Z,42.65
2018-02-10T01:01:32.201Z,40.12
2018-02-10T01:02:06.652Z,40.75
2018-02-10T01:02:40.341Z,41.60
2018-02-10T01:03:14.133Z,41.03
2018-02-10T01:03:47.807Z,41.20
2018-02-10T01:04:21.478Z,41.83
2018-02-10T01:04:55.162Z,39.88
2018-02-10T01:05:28.857Z,41.45
2018-02-10T01:06:02.565Z,43.15
2018-02-10T01:06:36.233Z,41.50
2018-02-10T01:07:09.909Z,39.03
2018-02-10T01:07:44.350Z,42.97
2018-02-10T01:08:18.016Z,41.22
2018-02-10T01:08:51.710Z,40.70
2018-02-10T01:09:25.401Z,41.03
2018-02-10T01:09:59.081Z,40.42
2018-02-10T01:10:33.536Z,41.60
2018-02-10T01:11:07.211Z,41.55
2018-02-10T01:11:40.930Z,41.13
2018-02-10T01:12:14.602Z,41.65
2018-02-10T01:12:48.282Z,41.58
2018-02-10T01:13:21.960Z,42.90
2018-02-10T01:13:55.642Z,42.70
2018-02-10T01:14:29.314Z,41.58
2018-02-10T01:15:02.994Z,44.63
2018-02-10T01:15:37.133Z,41.65
2018-02-10T01:16:10.897Z,42.25
2018-02-10T01:16:45.359Z,41.72
2018-02-10T01:17:19.031Z,42.25
2018-02-10T01:17:52.710Z,43.17
2018-02-10T01:18:26.403Z,43.65
2018-02-10T01:19:00.090Z,41.63
2018-02-10T01:19:33.777Z,43.33
2018-02-10T01:20:07.466Z,42.55
2018-02-10T01:20:41.172Z,43.67
2018-02-10T01:21:14.851Z,42.70
2018-02-10T01:21:48.516Z,43.58
2018-02-10T01:22:22.954Z,44.10
2018-02-10T01:22:56.645Z,45.92
2018-02-10T01:23:30.335Z,42.35
2018-02-10T01:24:04.026Z,43.03
2018-02-10T01:24:37.841Z,43.78
2018-02-10T01:25:11.521Z,43.28
2018-02-10T01:25:45.222Z,44.53
2018-02-10T01:26:18.911Z,44.20
2018-02-10T01:26:52.590Z,43.10
2018-02-10T01:27:26.269Z,44.65
2018-02-10T01:27:59.605Z,43.65
2018-02-10T01:28:34.053Z,46.63
2018-02-10T01:29:07.746Z,45.12
2018-02-10T01:29:41.421Z,45.42
2018-02-10T01:30:15.103Z,43.17
2018-02-10T01:30:48.801Z,47.78
2018-02-10T01:31:22.474Z,43.65
2018-02-10T01:31:56.159Z,43.87
2018-02-10T01:32:30.597Z,42.92
2018-02-10T01:33:04.285Z,42.70
2018-02-10T01:33:37.953Z,46.05
2018-02-10T01:34:11.633Z,46.80
2018-02-10T01:34:46.077Z,45.12
2018-02-10T01:35:19.745Z,44.28
2018-02-10T01:35:53.450Z,45.92
2018-02-10T01:36:27.123Z,44.42
2018-02-10T01:37:00.803Z,43.55
2018-02-10T01:37:34.489Z,44.47
2018-02-10T01:38:08.923Z,44.60
2018-02-10T01:38:42.596Z,44.83
2018-02-10T01:39:16.266Z,44.95
2018-02-10T01:39:50.718Z,45.25
2018-02-10T01:40:24.405Z,45.90
2018-02-10T01:40:58.124Z,46.50
2018-02-10T01:41:31.787Z,45.75
2018-02-10T01:42:05.480Z,44.70
2018-02-10T01:42:39.159Z,46.78
2018-02-10T01:43:12.836Z,45.92
2018-02-10T01:43:46.505Z,44.58
2018-02-10T01:44:20.949Z,46.58
2018-02-10T01:44:54.672Z,44.00
2018-02-10T01:45:28.388Z,46.15
2018-02-10T01:46:02.256Z,47.05
2018-02-10T01:46:35.929Z,46.10
2018-02-10T01:47:09.602Z,46.17
2018-02-10T01:47:43.294Z,49.60
2018-02-10T01:48:16.963Z,48.30
2018-02-10T01:48:50.645Z,46.75
2018-02-10T01:49:25.085Z,47.13
2018-02-10T01:50:09.960Z,45.97
2018-02-10T01:50:43.642Z,46.00
2018-02-10T01:51:17.353Z,47.70
2018-02-10T01:51:51.101Z,48.13
2018-02-10T01:52:24.772Z,47.65
2018-02-10T01:52:58.462Z,48.63
2018-02-10T01:53:32.135Z,48.72
2018-02-10T01:54:06.577Z,47.25
2018-02-10T01:54:40.253Z,47.30
2018-02-10T01:55:13.926Z,50.40
2018-02-10T01:55:48.384Z,48.95
2018-02-10T01:56:22.086Z,47.72
2018-02-10T01:56:55.763Z,49.53
2018-02-10T01:57:29.449Z,47.92
2018-02-10T01:58:03.121Z,47.60
2018-02-10T01:58:36.483Z,47.05
2018-02-10T01:59:10.931Z,49.08
2018-02-10T01:59:44.615Z,49.45
2018-02-10T02:00:17.975Z,49.75
2018-02-10T02:00:51.656Z,49.40
2018-02-10T02:01:25.639Z,50.00
2018-02-10T02:02:00.092Z,50.60
2018-02-10T02:02:33.765Z,52.15
2018-02-10T02:03:07.453Z,50.88
2018-02-10T02:03:41.139Z,49.80
2018-02-10T02:04:14.823Z,50.30
2018-02-10T02:04:48.498Z,50.05
2018-02-10T02:05:22.937Z,50.67
2018-02-10T02:05:56.616Z,51.60
2018-02-10T02:06:30.314Z,51.40
2018-02-10T02:07:03.684Z,52.85
2018-02-10T02:07:37.361Z,51.28
2018-02-10T02:08:11.793Z,50.88
2018-02-10T02:08:45.458Z,52.15
2018-02-10T02:09:19.134Z,50.20
2018-02-10T02:09:53.577Z,49.50
2018-02-10T02:10:27.259Z,51.83
2018-02-10T02:11:00.946Z,51.30
2018-02-10T02:11:34.918Z,53.65
2018-02-10T02:12:09.362Z,51.30
2018-02-10T02:12:43.041Z,51.00
2018-02-10T02:13:16.703Z,51.17
2018-02-10T02:13:51.159Z,51.70
2018-02-10T02:14:24.850Z,53.87
2018-02-10T02:14:58.538Z,49.53
2018-02-10T02:15:32.213Z,53.08
2018-02-10T02:16:05.883Z,54.53
2018-02-10T02:16:40.361Z,51.42
2018-02-10T02:17:14.051Z,50.50
2018-02-10T02:17:47.722Z,55.15
2018-02-10T02:18:21.409Z,53.83
2018-02-10T02:18:55.084Z,54.25
2018-02-10T02:19:28.774Z,53.72
2018-02-10T02:20:02.127Z,52.45
2018-02-10T02:20:35.798Z,53.05
2018-02-10T02:21:09.467Z,53.38
2018-02-10T02:21:43.179Z,51.78
2018-02-10T02:22:17.620Z,53.05
2018-02-10T02:22:51.305Z,53.72
2018-02-10T02:23:24.987Z,56.53
2018-02-10T02:23:58.663Z,52.72
2018-02-10T02:24:33.132Z,55.00
2018-02-10T02:25:07.003Z,55.60
2018-02-10T02:25:40.688Z,50.92
2018-02-10T02:26:14.381Z,54.67
2018-02-10T02:26:48.004Z,53.80
2018-02-10T02:27:21.683Z,52.70
2018-02-10T02:27:55.363Z,53.08
2018-02-10T02:28:29.055Z,54.10
2018-02-10T02:29:02.747Z,54.15
2018-02-10T02:29:36.424Z,54.10
2018-02-10T02:30:10.098Z,55.30
2018-02-10T02:30:43.794Z,55.97
2018-02-10T02:31:17.483Z,55.28
2018-02-10T02:31:51.190Z,55.70
2018-02-10T02:32:24.887Z,54.17
2018-02-10T02:32:58.573Z,57.53
2018-02-10T02:33:32.250Z,53.80
2018-02-10T02:34:05.932Z,55.40
2018-02-10T02:34:39.632Z,53.40
2018-02-10T02:35:13.300Z,54.95
2018-02-10T02:35:46.985Z,56.70
2018-02-10T02:36:20.676Z,55.90
2018-02-10T02:36:54.370Z,56.70
2018-02-10T02:37:28.058Z,55.72
2018-02-10T02:38:01.754Z,57.80
2018-02-10T02:38:35.441Z,57.40
2018-02-10T02:39:09.143Z,56.35
2018-02-10T02:39:42.839Z,59.47
2018-02-10T02:40:16.193Z,57.78
2018-02-10T02:40:49.866Z,55.78
2018-02-10T02:41:24.318Z,57.58
2018-02-10T02:41:58.023Z,59.70
2018-02-10T02:42:31.706Z,58.35
2018-02-10T02:43:05.416Z,58.33
2018-02-10T02:43:39.112Z,57.65
2018-02-10T02:44:12.781Z,59.50
2018-02-10T02:44:46.463Z,61.15
2018-02-10T02:45:20.141Z,59.67
2018-02-10T02:45:53.821Z,60.33
2018-02-10T02:46:27.510Z,57.78
2018-02-10T02:47:01.217Z,59.28
2018-02-10T02:47:34.887Z,60.20
2018-02-10T02:48:08.582Z,59.55
2018-02-10T02:48:42.270Z,62.58
2018-02-10T02:49:15.951Z,60.25
2018-02-10T02:49:49.687Z,60.28
2018-02-10T02:50:23.384Z,57.92
2018-02-10T02:50:57.058Z,62.70
2018-02-10T02:51:30.744Z,62.33
2018-02-10T02:52:04.444Z,61.53
2018-02-10T02:52:39.633Z,62.10
2018-02-10T02:53:13.313Z,60.05
2018-02-10T02:53:46.983Z,61.42
2018-02-10T02:54:21.416Z,59.92
2018-02-10T02:54:55.107Z,61.83
2018-02-10T02:55:28.790Z,60.38
2018-02-10T02:56:02.461Z,61.45
2018-02-10T02:56:36.140Z,60.90
2018-02-10T02:57:10.966Z,61.10
2018-02-10T02:57:45.410Z,63.28
2018-02-10T02:58:19.090Z,61.75
2018-02-10T02:58:52.774Z,62.75
2018-02-10T02:59:26.467Z,60.95
2018-02-10T03:00:00.149Z,61.22
2018-02-10T03:00:33.833Z,59.22
2018-02-10T03:01:08.285Z,63.20
2018-02-10T03:01:41.974Z,62.50
2018-02-10T03:02:15.666Z,61.70
2018-02-10T03:02:49.345Z,62.88
2018-02-10T03:03:23.009Z,63.13
2018-02-10T03:03:56.701Z,62.60
2018-02-10T03:04:30.387Z,59.20
2018-02-10T03:05:03.745Z,62.10
2018-02-10T03:05:38.198Z,65.72
2018-02-10T03:06:11.865Z,62.30
2018-02-10T03:06:45.553Z,63.22
2018-02-10T03:07:19.246Z,61.72
2018-02-10T03:07:52.937Z,64.62
2018-02-10T03:08:26.619Z,65.00
2018-02-10T03:09:00.313Z,63.92
2018-02-10T03:09:34.006Z,64.85
2018-02-10T03:10:07.689Z,66.45
2018-02-10T03:10:41.362Z,64.93
2018-02-10T03:11:15.789Z,65.55
2018-02-10T03:11:49.482Z,65.50
2018-02-10T03:12:22.521Z,66.87
2018-02-10T03:12:56.201Z,63.85
2018-02-10T03:13:29.866Z,67.75
2018-02-10T03:14:03.541Z,67.55
2018-02-10T03:14:37.229Z,62.92
2018-02-10T03:15:10.901Z,68.28
2018-02-10T03:15:44.585Z,67.47
2018-02-10T03:16:18.260Z,66.75
2018-02-10T03:16:52.712Z,67.37
2018-02-10T03:17:26.414Z,68.47
2018-02-10T03:18:00.104Z,67.07
2018-02-10T03:18:33.797Z,65.87
2018-02-10T03:19:07.476Z,65.75
2018-02-10T03:19:41.155Z,68.97
2018-02-10T03:20:14.839Z,66.85
2018-02-10T03:20:48.510Z,66.40
2018-02-10T03:21:22.202Z,67.05
2018-02-10T03:21:55.894Z,66.15
2018-02-10T03:22:29.605Z,67.35
2018-02-10T03:23:03.282Z,64.87
2018-02-10T03:23:36.957Z,67.37
2018-02-10T03:24:11.402Z,68.05
2018-02-10T03:24:45.084Z,71.05
2018-02-10T03:25:18.747Z,67.53
2018-02-10T03:25:52.438Z,70.65
2018-02-10T03:26:26.877Z,69.22
2018-02-10T03:27:00.563Z,67.22
2018-02-10T03:27:34.266Z,68.87
2018-02-10T03:28:07.972Z,70.55
2018-02-10T03:28:41.652Z,70.10
2018-02-10T03:29:15.327Z,68.60
2018-02-10T03:29:49.007Z,70.60
2018-02-10T03:30:22.697Z,69.10
2018-02-10T03:30:56.407Z,68.90
2018-02-10T03:31:30.086Z,67.20
2018-02-10T03:32:03.778Z,67.10
2018-02-10T03:32:37.466Z,69.93
2018-02-10T03:33:11.129Z,70.78
2018-02-10T03:33:44.798Z,68.70
2018-02-10T03:34:19.246Z,69.50
2018-02-10T03:34:52.940Z,67.07
2018-02-10T03:35:26.280Z,70.97
2018-02-10T03:36:00.726Z,71.82
2018-02-10T03:36:34.409Z,68.55
2018-02-10T03:37:08.104Z,68.50
2018-02-10T03:37:41.805Z,70.70
2018-02-10T03:38:15.486Z,70.45
2018-02-10T03:38:49.163Z,69.78
2018-02-10T03:39:22.839Z,72.00
2018-02-10T03:39:56.518Z,71.68
2018-02-10T03:40:30.958Z,67.97
2018-02-10T03:41:04.638Z,69.03
2018-02-10T03:41:38.333Z,71.82
2018-02-10T03:42:11.343Z,72.35
2018-02-10T03:42:44.382Z,71.57
2018-02-10T03:43:17.737Z,70.35
2018-02-10T03:43:51.531Z,70.50
2018-02-10T03:44:25.312Z,74.65
2018-02-10T03:44:59.752Z,74.00
2018-02-10T03:45:33.422Z,74.68
2018-02-10T03:46:07.863Z,73.50
2018-02-10T03:46:41.551Z,71.90
2018-02-10T03:47:15.238Z,74.18
2018-02-10T03:47:49.317Z,70.43
2018-02-10T03:48:22.997Z,72.07
2018-02-10T03:48:57.434Z,73.15
2018-02-10T03:49:31.114Z,72.25
2018-02-10T03:50:04.794Z,73.72
2018-02-10T03:50:39.229Z,71.30
2018-02-10T03:51:12.918Z,72.45
2018-02-10T03:51:46.601Z,74.07
2018-02-10T03:52:20.280Z,70.87
2018-02-10T03:52:54.250Z,74.60
2018-02-10T03:53:28.705Z,70.22
2018-02-10T03:54:02.384Z,77.20
2018-02-10T03:54:36.081Z,73.35
2018-02-10T03:55:09.763Z,73.60
2018-02-10T03:55:43.445Z,76.40
2018-02-10T03:56:17.130Z,73.18
2018-02-10T03:56:50.806Z,75.20
2018-02-10T03:57:25.247Z,77.53
2018-02-10T03:57:59.205Z,76.15
2018-02-10T03:58:33.652Z,74.45
2018-02-10T03:59:07.330Z,77.43
2018-02-10T03:59:41.019Z,74.15
2018-02-10T04:00:14.699Z,75.12
2018-02-10T04:00:48.373Z,73.75
2018-02-10T04:01:22.810Z,75.82
2018-02-10T04:01:56.485Z,77.00
2018-02-10T04:02:30.163Z,75.20
2018-02-10T04:03:04.978Z,79.05
2018-02-10T04:03:39.422Z,76.15
2018-02-10T04:04:13.110Z,74.37
2018-02-10T04:04:46.802Z,76.18
2018-02-10T04:05:20.489Z,78.37
2018-02-10T04:05:54.166Z,75.90
2018-02-10T04:06:27.850Z,75.12
2018-02-10T04:07:01.181Z,76.93
2018-02-10T04:07:34.859Z,73.87
2018-02-10T04:08:08.543Z,77.65
2018-02-10T04:08:42.229Z,75.07
2018-02-10T04:09:15.906Z,76.00
2018-02-10T04:09:49.586Z,77.37
2018-02-10T04:10:23.263Z,79.03
2018-02-10T04:10:56.937Z,77.55
2018-02-10T04:11:31.379Z,72.43
2018-02-10T04:12:04.727Z,78.00
2018-02-10T04:12:39.169Z,76.22
2018-02-10T04:13:12.862Z,73.60
2018-02-10T04:13:46.545Z,74.28
2018-02-10T04:14:20.219Z,79.12
2018-02-10T04:14:53.889Z,76.37
2018-02-10T04:15:28.332Z,80.05
2018-02-10T04:16:02.009Z,74.97
2018-02-10T04:16:35.683Z,76.87
2018-02-10T04:17:10.134Z,74.70
2018-02-10T04:17:43.805Z,78.00
2018-02-10T04:18:17.496Z,77.05
2018-02-10T04:18:51.177Z,79.50
2018-02-10T04:19:24.862Z,76.80
2018-02-10T04:19:58.537Z,75.57
2018-02-10T04:20:32.984Z,76.25
2018-02-10T04:21:06.669Z,75.97
2018-02-10T04:21:40.338Z,76.90
2018-02-10T04:22:14.007Z,77.90
2018-02-10T04:22:48.456Z,78.95
2018-02-10T04:23:22.156Z,80.85
2018-02-10T04:23:55.830Z,77.40
2018-02-10T04:24:29.523Z,77.12
2018-02-10T04:25:03.214Z,74.53
2018-02-10T04:25:36.886Z,74.43
2018-02-10T04:26:10.554Z,80.50
2018-02-10T04:26:44.211Z,77.55
2018-02-10T04:27:17.887Z,79.03
2018-02-10T04:27:51.572Z,74.93
2018-02-10T04:28:25.281Z,80.70
2018-02-10T04:28:58.958Z,81.87
2018-02-10T04:29:32.642Z,74.32
2018-02-10T04:30:06.317Z,77.47
2018-02-10T04:30:39.985Z,81.00
2018-02-10T04:31:13.653Z,79.03
2018-02-10T04:31:48.107Z,75.07
2018-02-10T04:32:21.784Z,79.37
2018-02-10T04:32:56.440Z,82.28
2018-02-10T04:33:30.134Z,75.87
2018-02-10T04:34:03.826Z,75.87
2018-02-10T04:34:38.283Z,80.05
2018-02-10T04:35:11.959Z,78.65
2018-02-10T04:35:45.638Z,78.95
2018-02-10T04:36:20.093Z,78.57
2018-02-10T04:36:53.771Z,79.20
2018-02-10T04:37:27.454Z,76.50
2018-02-10T04:38:01.114Z,77.65
2018-02-10T04:38:35.631Z,78.75
2018-02-10T04:39:10.076Z,79.37
2018-02-10T04:39:43.766Z,77.65
2018-02-10T04:40:17.441Z,80.47
2018-02-10T04:40:51.130Z,81.37
2018-02-10T04:41:24.811Z,78.57
2018-02-10T04:41:58.487Z,77.78
2018-02-10T04:42:32.170Z,77.60
2018-02-10T04:43:06.621Z,77.90
2018-02-10T04:43:40.568Z,80.95
2018-02-10T04:44:14.229Z,77.32
2018-02-10T04:44:47.916Z,79.85
2018-02-10T04:45:21.609Z,80.72
2018-02-10T04:45:55.287Z,74.03
2018-02-10T04:46:28.990Z,79.45
2018-02-10T04:47:02.668Z,76.78
2018-02-10T04:47:36.345Z,79.95
2018-02-10T04:48:10.009Z,77.75
2018-02-10T04:48:43.701Z,80.07
2018-02-10T04:49:17.380Z,79.25
2018-02-10T04:49:51.054Z,80.68
2018-02-10T04:50:25.489Z,76.82
2018-02-10T04:50:59.182Z,80.38
2018-02-10T04:51:32.866Z,77.55
2018-02-10T04:52:06.547Z,78.47
2018-02-10T04:52:40.993Z,77.07
2018-02-10T04:53:14.676Z,80.78
2018-02-10T04:53:48.380Z,79.18
2018-02-10T04:54:22.067Z,76.70
2018-02-10T04:54:55.749Z,81.10
2018-02-10T04:55:29.422Z,81.35
2018-02-10T04:56:03.102Z,79.57
2018-02-10T04:56:36.780Z,80.43
2018-02-10T04:57:11.223Z,76.30
2018-02-10T04:57:44.886Z,82.47
2018-02-10T04:58:18.566Z,79.47
2018-02-10T04:58:53.028Z,81.47
2018-02-10T04:59:26.694Z,77.72
2018-02-10T05:00:00.362Z,79.35
2018-02-10T05:00:34.040Z,79.25
2018-02-10T05:01:08.489Z,76.60
2018-02-10T05:01:42.174Z,79.05
2018-02-10T05:02:15.841Z,77.97
2018-02-10T05:02:49.535Z,79.32
2018-02-10T05:03:23.207Z,78.43
2018-02-10T05:03:57.723Z,79.22
2018-02-10T05:04:31.422Z,78.80
2018-02-10T05:05:05.097Z,77.15
2018-02-10T05:05:39.559Z,80.60
2018-02-10T05:06:13.234Z,77.65
2018-02-10T05:06:46.904Z,76.47
2018-02-10T05:07:20.589Z,79.05
2018-02-10T05:07:54.273Z,80.12
2018-02-10T05:08:27.966Z,79.68
2018-02-10T05:09:01.654Z,77.07
2018-02-10T05:09:35.331Z,78.40
2018-02-10T05:10:09.022Z,76.90
2018-02-10T05:10:42.711Z,75.93
2018-02-10T05:11:17.157Z,79.12
2018-02-10T05:11:50.838Z,75.80
2018-02-10T05:12:24.513Z,76.50
2018-02-10T05:12:58.185Z,79.15
2018-02-10T05:13:31.855Z,80.53
2018-02-10T05:14:05.572Z,77.97
2018-02-10T05:14:40.023Z,80.62
2018-02-10T05:15:13.708Z,81.18
2018-02-10T05:15:47.385Z,76.82
2018-02-10T05:16:21.054Z,79.87
2018-02-10T05:16:54.730Z,81.03
2018-02-10T05:17:29.192Z,78.60
2018-02-10T05:18:02.882Z,81.35
2018-02-10T05:18:36.575Z,79.70
2018-02-10T05:19:10.304Z,81.63
2018-02-10T05:19:44.751Z,80.55
2018-02-10T05:20:18.422Z,79.07
2018-02-10T05:20:52.128Z,77.85
2018-02-10T05:21:25.791Z,76.30
2018-02-10T05:22:00.238Z,79.00
2018-02-10T05:22:33.927Z,80.95
2018-02-10T05:23:07.607Z,80.18
2018-02-10T05:23:41.317Z,78.55
2018-02-10T05:24:15.026Z,77.30
2018-02-10T05:24:49.491Z,77.68
2018-02-10T05:25:23.166Z,79.03
2018-02-10T05:25:56.851Z,78.55
2018-02-10T05:26:30.541Z,76.25
2018-02-10T05:27:04.227Z,80.05
2018-02-10T05:27:37.914Z,81.85
2018-02-10T05:28:12.363Z,76.60
2018-02-10T05:28:46.046Z,79.37
2018-02-10T05:29:20.098Z,77.45
2018-02-10T05:29:54.542Z,82.62
2018-02-10T05:30:28.251Z,79.72
2018-02-10T05:31:01.944Z,79.10
2018-02-10T05:31:35.634Z,78.40
2018-02-10T05:32:09.319Z,76.82
2018-02-10T05:32:43.011Z,81.55
2018-02-10T05:33:16.698Z,80.30
2018-02-10T05:33:50.387Z,78.45
2018-02-10T05:34:24.089Z,84.32
2018-02-10T05:34:57.769Z,84.05
2018-02-10T05:35:31.445Z,82.47
2018-02-10T05:36:05.109Z,83.90
2018-02-10T05:36:39.554Z,82.37
2018-02-10T05:37:13.264Z,81.45
2018-02-10T05:37:47.097Z,78.62
2018-02-10T05:38:21.531Z,81.60
2018-02-10T05:38:55.207Z,82.22
2018-02-10T05:39:29.324Z,78.68
2018-02-10T05:40:03.005Z,78.07
2018-02-10T05:40:36.674Z,82.12
2018-02-10T05:41:10.362Z,83.35
2018-02-10T05:41:44.799Z,78.80
2018-02-10T05:42:18.488Z,82.20
2018-02-10T05:42:52.155Z,83.35
2018-02-10T05:43:26.586Z,80.10
2018-02-10T05:44:00.267Z,81.03
2018-02-10T05:44:33.958Z,82.62
2018-02-10T05:45:07.636Z,81.30
2018-02-10T05:45:41.323Z,81.03
2018-02-10T05:46:15.006Z,80.85
2018-02-10T05:46:49.452Z,80.68
2018-02-10T05:47:23.148Z,81.82
2018-02-10T05:47:56.831Z,78.45
2018-02-10T05:48:30.518Z,81.55
2018-02-10T05:49:04.197Z,81.18
2018-02-10T05:49:37.916Z,82.93
2018-02-10T05:50:11.766Z,81.50
2018-02-10T05:50:45.438Z,82.93
2018-02-10T05:51:19.899Z,79.32
2018-02-10T05:51:53.639Z,83.45
2018-02-10T05:52:27.459Z,85.50
2018-02-10T05:53:01.132Z,82.22
2018-02-10T05:53:34.819Z,78.93
2018-02-10T05:54:08.514Z,78.32
2018-02-10T05:54:42.222Z,79.87
2018-02-10T05:55:15.912Z,82.43
2018-02-10T05:55:49.597Z,82.50
2018-02-10T05:56:23.264Z,83.90
2018-02-10T05:56:57.707Z,81.97
2018-02-10T05:57:31.392Z,83.37
2018-02-10T05:58:05.111Z,85.28
2018-02-10T05:58:38.789Z,82.12
2018-02-10T05:59:12.474Z,81.85
2018-02-10T05:59:46.165Z,81.93
2018-02-10T06:00:19.873Z,82.20
2018-02-10T06:00:53.541Z,81.07
2018-02-10T06:01:27.226Z,81.68
2018-02-10T06:02:00.906Z,82.05
2018-02-10T06:02:34.591Z,82.85
2018-02-10T06:03:08.264Z,79.62
2018-02-10T06:03:41.953Z,81.68
2018-02-10T06:04:16.397Z,83.15
2018-02-10T06:04:50.089Z,83.18
2018-02-10T06:05:23.780Z,84.10
2018-02-10T06:05:57.447Z,83.28
2018-02-10T06:06:31.138Z,82.18
2018-02-10T06:07:04.810Z,83.68
2018-02-10T06:07:39.255Z,83.50
2018-02-10T06:08:12.959Z,81.72
2018-02-10T06:08:46.633Z,80.97
2018-02-10T06:09:20.318Z,77.72
2018-02-10T06:09:54.024Z,79.57
2018-02-10T06:10:27.697Z,86.50
2018-02-10T06:11:01.378Z,80.38
2018-02-10T06:11:35.057Z,87.75
2018-02-10T06:12:08.727Z,81.72
2018-02-10T06:12:43.172Z,81.32
2018-02-10T06:13:16.850Z,85.00
2018-02-10T06:13:50.547Z,82.03
2018-02-10T06:14:24.227Z,86.28
2018-02-10T06:14:57.918Z,86.80
2018-02-10T06:15:31.591Z,82.68
2018-02-10T06:16:06.039Z,82.82
2018-02-10T06:16:39.722Z,81.60
2018-02-10T06:17:13.406Z,82.62
2018-02-10T06:17:47.084Z,83.05
2018-02-10T06:18:20.768Z,83.55
2018-02-10T06:18:54.436Z,79.80
2018-02-10T06:19:28.878Z,84.87
2018-02-10T06:20:02.566Z,84.60
2018-02-10T06:20:36.230Z,80.47
2018-02-10T06:21:10.683Z,82.50
2018-02-10T06:21:44.358Z,83.45
2018-02-10T06:22:18.035Z,82.82
2018-02-10T06:22:51.721Z,83.78
2018-02-10T06:23:25.389Z,82.70
2018-02-10T06:23:59.829Z,85.30
2018-02-10T06:24:33.505Z,84.07
2018-02-10T06:25:07.207Z,83.40
2018-02-10T06:25:40.884Z,85.87
2018-02-10T06:26:14.588Z,85.18
2018-02-10T06:26:48.265Z,83.87
2018-02-10T06:27:21.941Z,86.97
2018-02-10T06:27:56.402Z,86.43
2018-02-10T06:28:30.262Z,81.97
2018-02-10T06:29:03.935Z,84.00
2018-02-10T06:29:38.375Z,82.15
2018-02-10T06:30:12.081Z,83.40
2018-02-10T06:30:45.754Z,82.78
2018-02-10T06:31:19.431Z,81.12
2018-02-10T06:31:53.101Z,85.38
2018-02-10T06:32:27.538Z,84.78
2018-02-10T06:33:01.197Z,81.35
2018-02-10T06:33:35.640Z,85.32
2018-02-10T06:34:08.991Z,84.75
2018-02-10T06:34:42.714Z,85.15
2018-02-10T06:35:16.412Z,85.38
2018-02-10T06:35:50.094Z,86.20
2018-02-10T06:36:23.769Z,86.25
2018-02-10T06:36:57.446Z,80.28
2018-02-10T06:37:31.138Z,86.63
2018-02-10T06:38:04.824Z,85.90
2018-02-10T06:38:38.506Z,83.57
2018-02-10T06:39:12.940Z,83.00
2018-02-10T06:39:46.638Z,84.55
2018-02-10T06:40:20.347Z,86.20
2018-02-10T06:40:54.019Z,82.10
2018-02-10T06:41:27.710Z,83.47
2018-02-10T06:42:01.399Z,86.95
2018-02-10T06:42:35.087Z,83.47
2018-02-10T06:43:08.766Z,86.32
2018-02-10T06:43:42.437Z,84.13
2018-02-10T06:44:16.246Z,87.18
2018-02-10T06:44:49.924Z,86.78
2018-02-10T06:45:23.626Z,84.37
2018-02-10T06:45:57.310Z,88.30
2018-02-10T06:46:30.991Z,86.65
2018-02-10T06:47:04.679Z,85.80
2018-02-10T06:47:38.362Z,83.68
2018-02-10T06:48:12.037Z,88.03
2018-02-10T06:48:45.760Z,83.25
2018-02-10T06:49:19.444Z,84.50
2018-02-10T06:49:53.137Z,84.55
2018-02-10T06:50:26.839Z,82.65
2018-02-10T06:51:00.517Z,85.82
2018-02-10T06:51:34.201Z,83.25
2018-02-10T06:52:07.879Z,88.78
2018-02-10T06:52:42.543Z,85.60
2018-02-10T06:53:16.212Z,89.75
2018-02-10T06:53:49.918Z,87.35
2018-02-10T06:54:23.588Z,87.60
2018-02-10T06:54:57.266Z,89.90
2018-02-10T06:55:30.993Z,90.53
2018-02-10T06:56:04.680Z,84.13
2018-02-10T06:56:38.386Z,84.13
2018-02-10T06:57:12.074Z,86.28
2018-02-10T06:57:45.753Z,90.47
2018-02-10T06:58:19.443Z,88.55
2018-02-10T06:58:53.290Z,89.57
2018-02-10T06:59:26.980Z,86.70
2018-02-10T07:00:01.430Z,90.05
2018-02-10T07:00:35.473Z,87.80
2018-02-10T07:01:09.921Z,85.35
2018-02-10T07:01:43.607Z,89.07
2018-02-10T07:02:17.274Z,88.10
2018-02-10T07:02:51.014Z,88.45
2018-02-10T07:03:24.694Z,86.65
2018-02-10T07:03:58.366Z,88.15
2018-02-10T07:04:32.051Z,88.35
2018-02-10T07:05:05.739Z,88.72
2018-02-10T07:05:39.476Z,88.18
2018-02-10T07:06:13.161Z,88.40
2018-02-10T07:06:46.862Z,88.53
2018-02-10T07:07:21.322Z,88.62
2018-02-10T07:07:55.010Z,85.90
2018-02-10T07:08:28.717Z,85.57
2018-02-10T07:09:02.388Z,86.28
2018-02-10T07:09:36.094Z,87.40
2018-02-10T07:10:09.783Z,88.82
2018-02-10T07:10:43.504Z,87.68
2018-02-10T07:11:18.754Z,89.57
2018-02-10T07:11:53.204Z,88.60
2018-02-10T07:12:27.644Z,87.40
2018-02-10T07:13:01.336Z,87.00
2018-02-10T07:13:35.007Z,89.45
2018-02-10T07:14:08.370Z,90.65
2018-02-10T07:14:42.058Z,87.05
2018-02-10T07:15:15.772Z,90.32